sensor_id;sensor_type;location;lat;lon;timestamp;temperature;humidity
1704;DHT22;849;48.780;9.216;2023-03-30T00:00:59;17.00;85.70
1704;DHT22;849;48.780;9.216;2023-03-30T00:03:26;16.90;86.60
1704;DHT22;849;48.780;9.216;2023-03-30T00:05:52;16.70;87.20
1704;DHT22;849;48.780;9.216;2023-03-30T00:08:22;16.60;87.50
1704;DHT22;849;48.780;9.216;2023-03-30T00:10:59;16.50;87.70
1704;DHT22;849;48.780;9.216;2023-03-30T00:13:27;16.70;87.80
1704;DHT22;849;48.780;9.216;2023-03-30T00:15:52;16.90;86.70
1704;DHT22;849;48.780;9.216;2023-03-30T00:18:18;17.00;86.30
1704;DHT22;849;48.780;9.216;2023-03-30T00:20:47;16.90;86.20
1704;DHT22;849;48.780;9.216;2023-03-30T00:23:13;16.90;86.90
1704;DHT22;849;48.780;9.216;2023-03-30T00:25:38;16.90;87.40
1704;DHT22;849;48.780;9.216;2023-03-30T00:28:04;16.90;88.10
1704;DHT22;849;48.780;9.216;2023-03-30T00:30:30;16.70;88.00
1704;DHT22;849;48.780;9.216;2023-03-30T00:32:55;16.70;87.90
1704;DHT22;849;48.780;9.216;2023-03-30T00:35:21;16.60;88.60
1704;DHT22;849;48.780;9.216;2023-03-30T00:37:47;16.60;89.10
1704;DHT22;849;48.780;9.216;2023-03-30T00:40:17;16.60;90.00
1704;DHT22;849;48.780;9.216;2023-03-30T00:42:43;16.50;89.60
1704;DHT22;849;48.780;9.216;2023-03-30T00:45:21;16.60;90.00
1704;DHT22;849;48.780;9.216;2023-03-30T00:48:00;16.80;90.00
1704;DHT22;849;48.780;9.216;2023-03-30T00:50:54;17.10;88.50
1704;DHT22;849;48.780;9.216;2023-03-30T00:53:36;17.10;87.80
1704;DHT22;849;48.780;9.216;2023-03-30T00:56:04;17.20;87.80
1704;DHT22;849;48.780;9.216;2023-03-30T00:58:31;17.30;87.80
1704;DHT22;849;48.780;9.216;2023-03-30T01:00:59;17.30;87.90
1704;DHT22;849;48.780;9.216;2023-03-30T01:03:27;17.40;87.30
1704;DHT22;849;48.780;9.216;2023-03-30T01:05:55;17.30;88.60
1704;DHT22;849;48.780;9.216;2023-03-30T01:08:21;17.30;89.30
1704;DHT22;849;48.780;9.216;2023-03-30T01:10:49;17.50;89.30
1704;DHT22;849;48.780;9.216;2023-03-30T01:13:17;17.80;88.10
1704;DHT22;849;48.780;9.216;2023-03-30T01:18:44;17.80;87.80
1704;DHT22;849;48.780;9.216;2023-03-30T01:21:21;17.80;87.30
1704;DHT22;849;48.780;9.216;2023-03-30T01:26:56;17.20;90.00
1704;DHT22;849;48.780;9.216;2023-03-30T01:40:17;16.70;95.20
1704;DHT22;849;48.780;9.216;2023-03-30T01:50:57;16.70;97.30
1704;DHT22;849;48.780;9.216;2023-03-30T01:56:32;16.60;98.90
1704;DHT22;849;48.780;9.216;2023-03-30T02:01:54;16.50;99.30
1704;DHT22;849;48.780;9.216;2023-03-30T02:04:29;16.40;98.90
1704;DHT22;849;48.780;9.216;2023-03-30T02:07:00;16.40;99.50
1704;DHT22;849;48.780;9.216;2023-03-30T02:09:29;16.40;99.30
1704;DHT22;849;48.780;9.216;2023-03-30T02:11:55;16.40;99.50
1704;DHT22;849;48.780;9.216;2023-03-30T02:14:31;16.40;99.90
1704;DHT22;849;48.780;9.216;2023-03-30T02:17:04;16.40;99.60
1704;DHT22;849;48.780;9.216;2023-03-30T02:19:31;16.40;99.70
1704;DHT22;849;48.780;9.216;2023-03-30T02:21:59;16.40;99.80
1704;DHT22;849;48.780;9.216;2023-03-30T02:24:27;16.40;99.40
1704;DHT22;849;48.780;9.216;2023-03-30T02:26:58;16.30;99.80
1704;DHT22;849;48.780;9.216;2023-03-30T02:29:25;16.30;99.90
1704;DHT22;849;48.780;9.216;2023-03-30T02:31:54;16.10;99.90
1704;DHT22;849;48.780;9.216;2023-03-30T02:40:26;16.50;99.90
1704;DHT22;849;48.780;9.216;2023-03-30T02:43:32;16.70;99.90
1704;DHT22;849;48.780;9.216;2023-03-30T02:46:10;16.80;99.70
1704;DHT22;849;48.780;9.216;2023-03-30T02:52:00;16.70;99.90
1704;DHT22;849;48.780;9.216;2023-03-30T02:54:49;16.80;99.80
1704;DHT22;849;48.780;9.216;2023-03-30T02:57:36;16.60;99.90
1704;DHT22;849;48.780;9.216;2023-03-30T03:00:10;16.70;99.90
1704;DHT22;849;48.780;9.216;2023-03-30T03:02:46;16.80;99.90
1704;DHT22;849;48.780;9.216;2023-03-30T03:05:13;16.60;99.90
1704;DHT22;849;48.780;9.216;2023-03-30T03:07:41;16.70;99.90
1704;DHT22;849;48.780;9.216;2023-03-30T03:10:07;16.60;99.90
1704;DHT22;849;48.780;9.216;2023-03-30T03:12:33;16.40;99.90
1704;DHT22;849;48.780;9.216;2023-03-30T03:14:59;16.40;99.90
1704;DHT22;849;48.780;9.216;2023-03-30T03:17:28;16.20;99.90
1704;DHT22;849;48.780;9.216;2023-03-30T03:20:02;16.10;99.90
1704;DHT22;849;48.780;9.216;2023-03-30T03:22:29;16.00;99.90
1704;DHT22;849;48.780;9.216;2023-03-30T03:24:54;15.80;99.90
1704;DHT22;849;48.780;9.216;2023-03-30T03:27:20;15.70;99.90
1704;DHT22;849;48.780;9.216;2023-03-30T03:29:46;15.50;99.90
1704;DHT22;849;48.780;9.216;2023-03-30T03:32:12;15.70;99.90
1704;DHT22;849;48.780;9.216;2023-03-30T03:34:37;15.80;99.90
1704;DHT22;849;48.780;9.216;2023-03-30T03:37:04;15.60;99.90
1704;DHT22;849;48.780;9.216;2023-03-30T03:39:30;15.70;99.90
1704;DHT22;849;48.780;9.216;2023-03-30T03:41:56;15.80;99.90
1704;DHT22;849;48.780;9.216;2023-03-30T03:44:22;15.90;99.90
1704;DHT22;849;48.780;9.216;2023-03-30T03:46:47;15.80;99.90
1704;DHT22;849;48.780;9.216;2023-03-30T03:49:13;15.70;99.90
1704;DHT22;849;48.780;9.216;2023-03-30T03:51:39;15.80;99.90
1704;DHT22;849;48.780;9.216;2023-03-30T03:54:04;15.80;99.90
1704;DHT22;849;48.780;9.216;2023-03-30T03:56:31;16.00;99.90
1704;DHT22;849;48.780;9.216;2023-03-30T03:58:57;16.00;99.90
1704;DHT22;849;48.780;9.216;2023-03-30T04:01:23;15.60;99.90
1704;DHT22;849;48.780;9.216;2023-03-30T04:03:48;15.50;99.90
1704;DHT22;849;48.780;9.216;2023-03-30T04:06:14;15.60;99.90
1704;DHT22;849;48.780;9.216;2023-03-30T04:08:40;15.80;99.90
1704;DHT22;849;48.780;9.216;2023-03-30T04:11:08;15.70;99.90
1704;DHT22;849;48.780;9.216;2023-03-30T04:13:37;15.50;99.90
1704;DHT22;849;48.780;9.216;2023-03-30T04:16:03;15.50;99.90
1704;DHT22;849;48.780;9.216;2023-03-30T04:18:29;15.60;99.90
1704;DHT22;849;48.780;9.216;2023-03-30T04:21:05;15.70;99.90
1704;DHT22;849;48.780;9.216;2023-03-30T04:23:32;15.60;99.90
1704;DHT22;849;48.780;9.216;2023-03-30T04:26:04;15.70;99.90
1704;DHT22;849;48.780;9.216;2023-03-30T04:28:33;15.80;99.90
1704;DHT22;849;48.780;9.216;2023-03-30T04:31:03;15.70;99.90
1704;DHT22;849;48.780;9.216;2023-03-30T04:33:30;15.80;99.90
1704;DHT22;849;48.780;9.216;2023-03-30T04:35:59;15.70;99.90
1704;DHT22;849;48.780;9.216;2023-03-30T04:38:25;15.90;99.90
1704;DHT22;849;48.780;9.216;2023-03-30T04:40:52;15.90;99.90
1704;DHT22;849;48.780;9.216;2023-03-30T04:43:20;16.10;99.90
1704;DHT22;849;48.780;9.216;2023-03-30T04:45:50;16.30;99.90
1704;DHT22;849;48.780;9.216;2023-03-30T04:48:17;16.40;99.90
1704;DHT22;849;48.780;9.216;2023-03-30T04:50:44;16.40;99.90
1704;DHT22;849;48.780;9.216;2023-03-30T04:53:11;16.50;99.90
1704;DHT22;849;48.780;9.216;2023-03-30T04:55:36;16.50;99.90
1704;DHT22;849;48.780;9.216;2023-03-30T04:58:02;16.50;99.90
1704;DHT22;849;48.780;9.216;2023-03-30T05:00:28;16.50;99.90
1704;DHT22;849;48.780;9.216;2023-03-30T05:02:54;16.50;99.90
1704;DHT22;849;48.780;9.216;2023-03-30T05:05:19;16.30;99.90
1704;DHT22;849;48.780;9.216;2023-03-30T05:07:45;16.10;99.90
1704;DHT22;849;48.780;9.216;2023-03-30T05:10:11;16.10;99.90
1704;DHT22;849;48.780;9.216;2023-03-30T05:12:36;16.00;99.90
1704;DHT22;849;48.780;9.216;2023-03-30T05:15:03;15.90;99.90
1704;DHT22;849;48.780;9.216;2023-03-30T05:17:31;15.80;99.90
1704;DHT22;849;48.780;9.216;2023-03-30T05:19:58;15.90;99.90
1704;DHT22;849;48.780;9.216;2023-03-30T05:22:24;15.60;99.90
1704;DHT22;849;48.780;9.216;2023-03-30T05:24:49;15.70;99.90
1704;DHT22;849;48.780;9.216;2023-03-30T05:27:17;15.60;99.90
1704;DHT22;849;48.780;9.216;2023-03-30T05:29:43;15.70;99.90
1704;DHT22;849;48.780;9.216;2023-03-30T05:32:09;15.70;99.90
1704;DHT22;849;48.780;9.216;2023-03-30T05:34:34;15.80;99.90
1704;DHT22;849;48.780;9.216;2023-03-30T05:37:00;15.60;99.90
1704;DHT22;849;48.780;9.216;2023-03-30T05:39:26;15.70;99.90
1704;DHT22;849;48.780;9.216;2023-03-30T05:41:52;15.70;99.90
1704;DHT22;849;48.780;9.216;2023-03-30T05:44:18;15.70;99.90
1704;DHT22;849;48.780;9.216;2023-03-30T05:46:43;15.90;99.90
1704;DHT22;849;48.780;9.216;2023-03-30T05:49:09;15.90;99.90
1704;DHT22;849;48.780;9.216;2023-03-30T05:51:35;15.80;99.90
1704;DHT22;849;48.780;9.216;2023-03-30T05:54:01;15.90;99.90
1704;DHT22;849;48.780;9.216;2023-03-30T05:56:28;15.90;99.90
1704;DHT22;849;48.780;9.216;2023-03-30T05:58:54;15.80;99.90
1704;DHT22;849;48.780;9.216;2023-03-30T06:01:20;15.70;99.90
1704;DHT22;849;48.780;9.216;2023-03-30T06:03:46;15.90;99.90
1704;DHT22;849;48.780;9.216;2023-03-30T06:06:12;15.80;99.90
1704;DHT22;849;48.780;9.216;2023-03-30T06:08:38;15.50;99.90
1704;DHT22;849;48.780;9.216;2023-03-30T06:11:04;15.70;99.90
1704;DHT22;849;48.780;9.216;2023-03-30T06:13:30;15.80;99.90
1704;DHT22;849;48.780;9.216;2023-03-30T06:15:56;15.80;99.90
1704;DHT22;849;48.780;9.216;2023-03-30T06:18:22;15.90;99.90
1704;DHT22;849;48.780;9.216;2023-03-30T06:20:48;15.80;99.90
1704;DHT22;849;48.780;9.216;2023-03-30T06:23:15;15.40;99.90
1704;DHT22;849;48.780;9.216;2023-03-30T06:25:44;15.40;99.90
1704;DHT22;849;48.780;9.216;2023-03-30T06:28:10;15.50;99.90
1704;DHT22;849;48.780;9.216;2023-03-30T06:30:37;15.60;99.90
1704;DHT22;849;48.780;9.216;2023-03-30T06:33:03;15.70;99.90
1704;DHT22;849;48.780;9.216;2023-03-30T06:35:29;15.80;99.90
1704;DHT22;849;48.780;9.216;2023-03-30T06:37:55;15.90;99.90
1704;DHT22;849;48.780;9.216;2023-03-30T06:40:21;16.20;99.90
1704;DHT22;849;48.780;9.216;2023-03-30T06:42:46;16.00;99.90
1704;DHT22;849;48.780;9.216;2023-03-30T06:45:12;16.10;99.90
1704;DHT22;849;48.780;9.216;2023-03-30T06:47:39;16.30;99.90
1704;DHT22;849;48.780;9.216;2023-03-30T06:50:06;16.50;99.90
1704;DHT22;849;48.780;9.216;2023-03-30T06:52:36;16.60;99.90
1704;DHT22;849;48.780;9.216;2023-03-30T06:55:03;16.30;99.90
1704;DHT22;849;48.780;9.216;2023-03-30T06:57:28;15.80;99.90
1704;DHT22;849;48.780;9.216;2023-03-30T06:59:55;15.70;99.90
1704;DHT22;849;48.780;9.216;2023-03-30T07:02:21;15.80;99.90
1704;DHT22;849;48.780;9.216;2023-03-30T07:04:46;15.70;99.90
1704;DHT22;849;48.780;9.216;2023-03-30T07:07:13;15.80;99.90
1704;DHT22;849;48.780;9.216;2023-03-30T07:09:38;16.00;99.90
1704;DHT22;849;48.780;9.216;2023-03-30T07:12:04;16.20;99.90
1704;DHT22;849;48.780;9.216;2023-03-30T07:14:30;15.70;99.90
1704;DHT22;849;48.780;9.216;2023-03-30T07:16:56;15.70;99.90
1704;DHT22;849;48.780;9.216;2023-03-30T07:19:22;15.70;99.90
1704;DHT22;849;48.780;9.216;2023-03-30T07:21:48;15.50;99.90
1704;DHT22;849;48.780;9.216;2023-03-30T07:24:14;15.50;99.90
1704;DHT22;849;48.780;9.216;2023-03-30T07:26:40;15.70;99.90
1704;DHT22;849;48.780;9.216;2023-03-30T07:29:06;15.50;99.90
1704;DHT22;849;48.780;9.216;2023-03-30T07:31:32;15.30;99.90
1704;DHT22;849;48.780;9.216;2023-03-30T07:33:57;15.00;99.90
1704;DHT22;849;48.780;9.216;2023-03-30T07:36:23;15.30;99.90
1704;DHT22;849;48.780;9.216;2023-03-30T07:38:49;15.60;99.90
1704;DHT22;849;48.780;9.216;2023-03-30T07:41:15;15.50;99.90
1704;DHT22;849;48.780;9.216;2023-03-30T07:43:42;15.40;99.90
1704;DHT22;849;48.780;9.216;2023-03-30T07:46:11;15.50;99.90
1704;DHT22;849;48.780;9.216;2023-03-30T07:48:40;15.50;99.90
1704;DHT22;849;48.780;9.216;2023-03-30T07:51:10;15.40;99.90
1704;DHT22;849;48.780;9.216;2023-03-30T07:53:37;15.30;99.90
1704;DHT22;849;48.780;9.216;2023-03-30T07:56:04;15.40;99.90
1704;DHT22;849;48.780;9.216;2023-03-30T07:58:31;15.70;99.90
1704;DHT22;849;48.780;9.216;2023-03-30T08:00:57;15.70;99.90
1704;DHT22;849;48.780;9.216;2023-03-30T08:03:23;15.80;99.90
1704;DHT22;849;48.780;9.216;2023-03-30T08:05:57;15.90;99.90
1704;DHT22;849;48.780;9.216;2023-03-30T08:08:29;16.00;99.90
1704;DHT22;849;48.780;9.216;2023-03-30T08:10:55;16.00;99.90
1704;DHT22;849;48.780;9.216;2023-03-30T08:13:20;15.60;99.90
1704;DHT22;849;48.780;9.216;2023-03-30T08:15:46;15.30;99.90
1704;DHT22;849;48.780;9.216;2023-03-30T08:18:13;15.40;99.90
1704;DHT22;849;48.780;9.216;2023-03-30T08:20:40;15.60;99.90
1704;DHT22;849;48.780;9.216;2023-03-30T08:23:09;15.60;99.90
1704;DHT22;849;48.780;9.216;2023-03-30T08:25:36;15.80;99.90
1704;DHT22;849;48.780;9.216;2023-03-30T08:28:02;15.70;99.90
1704;DHT22;849;48.780;9.216;2023-03-30T08:30:28;15.70;99.90
1704;DHT22;849;48.780;9.216;2023-03-30T08:32:54;15.90;99.90
1704;DHT22;849;48.780;9.216;2023-03-30T08:35:20;16.00;99.90
1704;DHT22;849;48.780;9.216;2023-03-30T08:37:46;16.10;99.90
1704;DHT22;849;48.780;9.216;2023-03-30T08:40:13;16.10;99.90
1704;DHT22;849;48.780;9.216;2023-03-30T08:45:24;16.30;99.90
1704;DHT22;849;48.780;9.216;2023-03-30T08:47:53;16.20;99.90
1704;DHT22;849;48.780;9.216;2023-03-30T08:50:36;16.20;99.90
1704;DHT22;849;48.780;9.216;2023-03-30T08:53:04;16.20;99.90
1704;DHT22;849;48.780;9.216;2023-03-30T08:55:39;16.10;99.90
1704;DHT22;849;48.780;9.216;2023-03-30T09:03:26;15.90;99.90
1704;DHT22;849;48.780;9.216;2023-03-30T09:08:32;15.90;99.90
1704;DHT22;849;48.780;9.216;2023-03-30T09:11:00;15.80;99.90
1704;DHT22;849;48.780;9.216;2023-03-30T09:13:33;15.90;99.90
1704;DHT22;849;48.780;9.216;2023-03-30T09:19:07;15.60;99.90
1704;DHT22;849;48.780;9.216;2023-03-30T09:21:37;15.70;99.90
1704;DHT22;849;48.780;9.216;2023-03-30T09:24:11;15.60;99.90
1704;DHT22;849;48.780;9.216;2023-03-30T09:26:51;15.50;99.90
1704;DHT22;849;48.780;9.216;2023-03-30T09:29:25;15.50;99.90
1704;DHT22;849;48.780;9.216;2023-03-30T09:32:02;15.50;99.90
1704;DHT22;849;48.780;9.216;2023-03-30T09:37:09;15.30;99.90
1704;DHT22;849;48.780;9.216;2023-03-30T09:39:36;15.30;99.90
1704;DHT22;849;48.780;9.216;2023-03-30T09:47:36;15.80;99.90
1704;DHT22;849;48.780;9.216;2023-03-30T09:50:06;15.60;99.90
1704;DHT22;849;48.780;9.216;2023-03-30T09:52:38;15.70;99.90
1704;DHT22;849;48.780;9.216;2023-03-30T09:55:27;15.50;99.90
1704;DHT22;849;48.780;9.216;2023-03-30T09:57:53;15.50;99.90
1704;DHT22;849;48.780;9.216;2023-03-30T10:00:29;15.70;99.90
1704;DHT22;849;48.780;9.216;2023-03-30T10:02:59;15.90;99.90
1704;DHT22;849;48.780;9.216;2023-03-30T10:05:26;15.90;99.90
1704;DHT22;849;48.780;9.216;2023-03-30T10:07:57;15.90;99.90
1704;DHT22;849;48.780;9.216;2023-03-30T10:10:35;15.90;99.90
1704;DHT22;849;48.780;9.216;2023-03-30T10:15:39;16.30;99.90
1704;DHT22;849;48.780;9.216;2023-03-30T10:18:21;16.30;99.90
1704;DHT22;849;48.780;9.216;2023-03-30T10:21:04;16.00;99.90
1704;DHT22;849;48.780;9.216;2023-03-30T10:23:33;16.20;99.90
1704;DHT22;849;48.780;9.216;2023-03-30T10:26:01;16.40;99.90
1704;DHT22;849;48.780;9.216;2023-03-30T10:28:30;16.10;99.90
1704;DHT22;849;48.780;9.216;2023-03-30T10:31:00;16.10;99.90
1704;DHT22;849;48.780;9.216;2023-03-30T10:33:29;16.10;99.90
1704;DHT22;849;48.780;9.216;2023-03-30T10:35:58;16.40;99.90
1704;DHT22;849;48.780;9.216;2023-03-30T10:38:32;16.50;99.90
1704;DHT22;849;48.780;9.216;2023-03-30T10:41:06;16.50;99.90
1704;DHT22;849;48.780;9.216;2023-03-30T10:43:34;16.50;99.90
1704;DHT22;849;48.780;9.216;2023-03-30T10:46:10;16.40;99.90
1704;DHT22;849;48.780;9.216;2023-03-30T10:51:35;16.50;99.90
1704;DHT22;849;48.780;9.216;2023-03-30T10:54:28;16.50;99.90
1704;DHT22;849;48.780;9.216;2023-03-30T10:57:13;16.30;99.90
1704;DHT22;849;48.780;9.216;2023-03-30T11:10:19;16.40;99.90
1704;DHT22;849;48.780;9.216;2023-03-30T11:13:05;16.50;99.90
1704;DHT22;849;48.780;9.216;2023-03-30T11:15:48;16.50;99.90
1704;DHT22;849;48.780;9.216;2023-03-30T11:18:38;16.30;99.90
1704;DHT22;849;48.780;9.216;2023-03-30T11:21:16;16.30;99.90
1704;DHT22;849;48.780;9.216;2023-03-30T11:23:54;16.40;99.90
1704;DHT22;849;48.780;9.216;2023-03-30T11:26:40;16.80;99.90
1704;DHT22;849;48.780;9.216;2023-03-30T11:29:29;17.00;99.90
1704;DHT22;849;48.780;9.216;2023-03-30T11:32:12;17.20;99.90
1704;DHT22;849;48.780;9.216;2023-03-30T11:37:43;17.00;99.90
1704;DHT22;849;48.780;9.216;2023-03-30T11:41:03;17.10;99.90
1704;DHT22;849;48.780;9.216;2023-03-30T11:43:01;16.80;99.90
1704;DHT22;849;48.780;9.216;2023-03-30T11:48:43;17.10;99.90
1704;DHT22;849;48.780;9.216;2023-03-30T12:03:08;16.90;99.90
1704;DHT22;849;48.780;9.216;2023-03-30T12:05:41;17.10;99.90
1704;DHT22;849;48.780;9.216;2023-03-30T12:10:42;17.20;99.90
1704;DHT22;849;48.780;9.216;2023-03-30T12:13:14;17.00;99.90
1704;DHT22;849;48.780;9.216;2023-03-30T12:15:54;17.00;99.90
1704;DHT22;849;48.780;9.216;2023-03-30T12:18:42;16.90;99.90
1704;DHT22;849;48.780;9.216;2023-03-30T12:21:29;17.10;99.90
1704;DHT22;849;48.780;9.216;2023-03-30T12:26:27;16.50;99.90
1704;DHT22;849;48.780;9.216;2023-03-30T12:29:08;16.60;99.90
1704;DHT22;849;48.780;9.216;2023-03-30T12:34:13;16.90;99.90
1704;DHT22;849;48.780;9.216;2023-03-30T12:36:40;16.90;99.90
1704;DHT22;849;48.780;9.216;2023-03-30T12:39:17;17.10;99.90
1704;DHT22;849;48.780;9.216;2023-03-30T12:41:48;17.00;99.90
1704;DHT22;849;48.780;9.216;2023-03-30T12:49:51;17.10;99.90
1704;DHT22;849;48.780;9.216;2023-03-30T13:00:31;17.20;99.90
1704;DHT22;849;48.780;9.216;2023-03-30T13:03:13;17.10;99.90
1704;DHT22;849;48.780;9.216;2023-03-30T13:05:43;17.30;99.90
1704;DHT22;849;48.780;9.216;2023-03-30T13:11:06;17.50;99.90
1704;DHT22;849;48.780;9.216;2023-03-30T13:13:54;17.60;99.90
1704;DHT22;849;48.780;9.216;2023-03-30T13:24:44;17.10;99.90
1704;DHT22;849;48.780;9.216;2023-03-30T13:29:58;17.10;99.90
1704;DHT22;849;48.780;9.216;2023-03-30T13:44:03;17.00;99.90
1704;DHT22;849;48.780;9.216;2023-03-30T13:46:48;17.30;99.90
1704;DHT22;849;48.780;9.216;2023-03-30T13:52:19;17.30;99.90
1704;DHT22;849;48.780;9.216;2023-03-30T13:54:46;17.50;99.90
1704;DHT22;849;48.780;9.216;2023-03-30T13:57:20;17.60;99.90
1704;DHT22;849;48.780;9.216;2023-03-30T13:59:51;17.50;99.90
1704;DHT22;849;48.780;9.216;2023-03-30T14:02:20;17.50;99.90
1704;DHT22;849;48.780;9.216;2023-03-30T14:04:46;17.60;99.90
1704;DHT22;849;48.780;9.216;2023-03-30T14:07:19;17.70;99.90
1704;DHT22;849;48.780;9.216;2023-03-30T14:10:12;17.50;99.90
1704;DHT22;849;48.780;9.216;2023-03-30T14:12:39;17.60;99.90
1704;DHT22;849;48.780;9.216;2023-03-30T14:15:35;17.50;99.90
1704;DHT22;849;48.780;9.216;2023-03-30T14:18:02;17.50;99.90
1704;DHT22;849;48.780;9.216;2023-03-30T14:20:43;17.50;99.90
1704;DHT22;849;48.780;9.216;2023-03-30T14:25:57;17.60;99.90
1704;DHT22;849;48.780;9.216;2023-03-30T14:28:26;17.60;97.80
1704;DHT22;849;48.780;9.216;2023-03-30T14:30:55;17.50;96.90
1704;DHT22;849;48.780;9.216;2023-03-30T14:33:21;17.40;97.80
1704;DHT22;849;48.780;9.216;2023-03-30T14:35:50;17.30;97.30
1704;DHT22;849;48.780;9.216;2023-03-30T14:38:21;17.10;97.40
1704;DHT22;849;48.780;9.216;2023-03-30T14:40:49;17.30;97.70
1704;DHT22;849;48.780;9.216;2023-03-30T14:43:19;17.50;95.90
1704;DHT22;849;48.780;9.216;2023-03-30T14:45:46;17.60;96.60
1704;DHT22;849;48.780;9.216;2023-03-30T14:48:25;17.80;95.50
1704;DHT22;849;48.780;9.216;2023-03-30T14:50:53;17.90;94.40
1704;DHT22;849;48.780;9.216;2023-03-30T14:53:22;17.80;93.50
1704;DHT22;849;48.780;9.216;2023-03-30T14:55:50;17.60;94.40
1704;DHT22;849;48.780;9.216;2023-03-30T14:58:16;17.70;95.20
1704;DHT22;849;48.780;9.216;2023-03-30T15:00:42;17.60;98.50
1704;DHT22;849;48.780;9.216;2023-03-30T15:03:09;17.60;99.90
1704;DHT22;849;48.780;9.216;2023-03-30T15:05:37;17.50;97.00
1704;DHT22;849;48.780;9.216;2023-03-30T15:08:14;17.40;98.40
1704;DHT22;849;48.780;9.216;2023-03-30T15:10:49;17.60;96.80
1704;DHT22;849;48.780;9.216;2023-03-30T15:13:30;17.60;98.20
1704;DHT22;849;48.780;9.216;2023-03-30T15:15:57;17.80;97.20
1704;DHT22;849;48.780;9.216;2023-03-30T15:18:26;17.50;96.40
1704;DHT22;849;48.780;9.216;2023-03-30T15:20:54;17.30;97.50
1704;DHT22;849;48.780;9.216;2023-03-30T15:23:20;17.40;97.20
1704;DHT22;849;48.780;9.216;2023-03-30T15:25:47;17.60;98.30
1704;DHT22;849;48.780;9.216;2023-03-30T15:28:16;17.90;98.50
1704;DHT22;849;48.780;9.216;2023-03-30T15:30:45;17.90;98.20
1704;DHT22;849;48.780;9.216;2023-03-30T15:33:20;17.50;97.30
1704;DHT22;849;48.780;9.216;2023-03-30T15:35:49;17.30;97.90
1704;DHT22;849;48.780;9.216;2023-03-30T15:38:16;17.40;98.30
1704;DHT22;849;48.780;9.216;2023-03-30T15:40:46;17.40;96.80
1704;DHT22;849;48.780;9.216;2023-03-30T15:45:49;17.10;98.50
1704;DHT22;849;48.780;9.216;2023-03-30T15:48:21;17.40;99.00
1704;DHT22;849;48.780;9.216;2023-03-30T15:50:52;18.80;96.50
1704;DHT22;849;48.780;9.216;2023-03-30T15:53:27;19.80;96.90
1704;DHT22;849;48.780;9.216;2023-03-30T15:55:55;19.60;92.50
1704;DHT22;849;48.780;9.216;2023-03-30T15:58:24;20.10;93.80
1704;DHT22;849;48.780;9.216;2023-03-30T16:00:51;21.40;92.90
1704;DHT22;849;48.780;9.216;2023-03-30T16:03:34;22.50;81.80
1704;DHT22;849;48.780;9.216;2023-03-30T16:06:00;22.30;74.10
1704;DHT22;849;48.780;9.216;2023-03-30T16:08:26;22.50;70.00
1704;DHT22;849;48.780;9.216;2023-03-30T16:10:52;22.30;65.60
1704;DHT22;849;48.780;9.216;2023-03-30T16:13:18;22.00;64.90
1704;DHT22;849;48.780;9.216;2023-03-30T16:15:43;20.90;67.70
1704;DHT22;849;48.780;9.216;2023-03-30T16:18:10;20.80;67.90
1704;DHT22;849;48.780;9.216;2023-03-30T16:20:36;20.90;68.10
1704;DHT22;849;48.780;9.216;2023-03-30T16:23:02;21.10;67.70
1704;DHT22;849;48.780;9.216;2023-03-30T16:25:29;20.90;64.60
1704;DHT22;849;48.780;9.216;2023-03-30T16:27:55;20.50;66.60
1704;DHT22;849;48.780;9.216;2023-03-30T16:30:28;20.30;66.40
1704;DHT22;849;48.780;9.216;2023-03-30T16:32:59;19.80;67.60
1704;DHT22;849;48.780;9.216;2023-03-30T16:35:25;19.50;69.40
1704;DHT22;849;48.780;9.216;2023-03-30T16:37:51;19.00;70.20
1704;DHT22;849;48.780;9.216;2023-03-30T16:40:35;19.10;72.50
1704;DHT22;849;48.780;9.216;2023-03-30T16:43:03;18.80;71.70
1704;DHT22;849;48.780;9.216;2023-03-30T16:45:29;18.70;72.60
1704;DHT22;849;48.780;9.216;2023-03-30T16:47:55;18.50;73.30
1704;DHT22;849;48.780;9.216;2023-03-30T16:50:35;18.40;74.50
1704;DHT22;849;48.780;9.216;2023-03-30T16:53:01;18.00;74.90
1704;DHT22;849;48.780;9.216;2023-03-30T16:55:27;17.60;77.50
1704;DHT22;849;48.780;9.216;2023-03-30T16:57:53;17.40;79.10
1704;DHT22;849;48.780;9.216;2023-03-30T17:00:24;17.40;79.50
1704;DHT22;849;48.780;9.216;2023-03-30T17:02:51;17.10;80.30
1704;DHT22;849;48.780;9.216;2023-03-30T17:05:17;16.80;80.80
1704;DHT22;849;48.780;9.216;2023-03-30T17:07:43;16.80;82.90
1704;DHT22;849;48.780;9.216;2023-03-30T17:10:22;17.10;82.70
1704;DHT22;849;48.780;9.216;2023-03-30T17:12:51;17.40;83.70
1704;DHT22;849;48.780;9.216;2023-03-30T17:15:18;17.40;83.10
1704;DHT22;849;48.780;9.216;2023-03-30T17:17:45;17.40;83.20
1704;DHT22;849;48.780;9.216;2023-03-30T17:20:27;17.40;83.50
1704;DHT22;849;48.780;9.216;2023-03-30T17:22:53;17.30;83.60
1704;DHT22;849;48.780;9.216;2023-03-30T17:25:21;17.20;83.00
1704;DHT22;849;48.780;9.216;2023-03-30T17:27:53;17.20;83.80
1704;DHT22;849;48.780;9.216;2023-03-30T17:30:24;17.20;84.50
1704;DHT22;849;48.780;9.216;2023-03-30T17:32:51;17.20;85.00
1704;DHT22;849;48.780;9.216;2023-03-30T17:35:17;17.20;85.20
1704;DHT22;849;48.780;9.216;2023-03-30T17:37:43;17.10;85.80
1704;DHT22;849;48.780;9.216;2023-03-30T17:42:41;16.90;86.30
1704;DHT22;849;48.780;9.216;2023-03-30T17:45:07;16.60;86.70
1704;DHT22;849;48.780;9.216;2023-03-30T17:47:32;16.30;87.80
1704;DHT22;849;48.780;9.216;2023-03-30T17:49:58;15.90;89.30
1704;DHT22;849;48.780;9.216;2023-03-30T17:52:24;16.10;90.20
1704;DHT22;849;48.780;9.216;2023-03-30T17:54:55;15.90;90.10
1704;DHT22;849;48.780;9.216;2023-03-30T17:57:21;15.80;90.70
1704;DHT22;849;48.780;9.216;2023-03-30T17:59:47;16.00;90.80
1704;DHT22;849;48.780;9.216;2023-03-30T18:02:13;16.10;90.60
1704;DHT22;849;48.780;9.216;2023-03-30T18:04:38;16.30;90.80
1704;DHT22;849;48.780;9.216;2023-03-30T18:07:04;16.40;90.60
1704;DHT22;849;48.780;9.216;2023-03-30T18:09:30;16.60;90.60
1704;DHT22;849;48.780;9.216;2023-03-30T18:11:56;16.70;90.50
1704;DHT22;849;48.780;9.216;2023-03-30T18:14:22;16.50;90.90
1704;DHT22;849;48.780;9.216;2023-03-30T18:16:47;16.20;90.70
1704;DHT22;849;48.780;9.216;2023-03-30T18:19:13;15.90;91.20
1704;DHT22;849;48.780;9.216;2023-03-30T18:21:39;15.90;91.60
1704;DHT22;849;48.780;9.216;2023-03-30T18:24:05;16.10;91.50
1704;DHT22;849;48.780;9.216;2023-03-30T18:26:30;16.20;91.30
1704;DHT22;849;48.780;9.216;2023-03-30T18:28:57;16.30;91.30
1704;DHT22;849;48.780;9.216;2023-03-30T18:31:23;16.50;91.60
1704;DHT22;849;48.780;9.216;2023-03-30T18:33:49;16.40;91.70
1704;DHT22;849;48.780;9.216;2023-03-30T18:36:14;16.40;91.80
1704;DHT22;849;48.780;9.216;2023-03-30T18:38:41;16.40;91.80
1704;DHT22;849;48.780;9.216;2023-03-30T18:41:11;16.30;92.40
1704;DHT22;849;48.780;9.216;2023-03-30T18:43:37;16.20;92.50
1704;DHT22;849;48.780;9.216;2023-03-30T18:46:03;16.20;92.60
1704;DHT22;849;48.780;9.216;2023-03-30T18:48:29;16.10;92.40
1704;DHT22;849;48.780;9.216;2023-03-30T18:50:55;16.30;92.80
1704;DHT22;849;48.780;9.216;2023-03-30T18:53:23;16.30;92.90
1704;DHT22;849;48.780;9.216;2023-03-30T18:55:53;16.10;93.50
1704;DHT22;849;48.780;9.216;2023-03-30T18:58:26;16.20;93.50
1704;DHT22;849;48.780;9.216;2023-03-30T19:00:53;16.10;93.50
1704;DHT22;849;48.780;9.216;2023-03-30T19:03:20;16.10;93.80
1704;DHT22;849;48.780;9.216;2023-03-30T19:05:47;15.90;94.30